sensor_id;sensor_type;location;lat;lon;timestamp;pressure;altitude;pressure_sealevel;temperature;humidity
76311;BME280;65120;59.304;18.294;2023-03-11T00:01:43;99964.75;;;-5.13;63.68
76311;BME280;65120;59.304;18.294;2023-03-11T00:04:10;99962.09;;;-5.16;64.65
76311;BME280;65120;59.304;18.294;2023-03-11T00:06:37;99962.00;;;-5.20;63.77
76311;BME280;65120;59.304;18.294;2023-03-11T00:09:04;99965.28;;;-5.24;64.41
76311;BME280;65120;59.304;18.294;2023-03-11T00:11:31;99967.72;;;-5.27;64.26
76311;BME280;65120;59.304;18.294;2023-03-11T00:13:58;99965.97;;;-5.29;64.21
76311;BME280;65120;59.304;18.294;2023-03-11T00:16:25;99956.47;;;-5.33;64.02
76311;BME280;65120;59.304;18.294;2023-03-11T00:18:53;99960.72;;;-5.34;63.97
76311;BME280;65120;59.304;18.294;2023-03-11T00:21:20;99957.22;;;-5.37;64.13
76311;BME280;65120;59.304;18.294;2023-03-11T00:23:47;99952.03;;;-5.40;64.69
76311;BME280;65120;59.304;18.294;2023-03-11T00:26:14;99948.47;;;-5.46;64.76
76311;BME280;65120;59.304;18.294;2023-03-11T00:28:41;99946.72;;;-5.47;64.17
76311;BME280;65120;59.304;18.294;2023-03-11T00:31:10;99957.69;;;-5.49;64.47
76311;BME280;65120;59.304;18.294;2023-03-11T00:33:37;99951.59;;;-5.53;64.08
76311;BME280;65120;59.304;18.294;2023-03-11T00:36:06;99949.78;;;-5.57;64.08
76311;BME280;65120;59.304;18.294;2023-03-11T00:38:33;99945.41;;;-5.61;64.07
76311;BME280;65120;59.304;18.294;2023-03-11T00:41:00;99947.03;;;-5.63;64.02
76311;BME280;65120;59.304;18.294;2023-03-11T00:43:27;99945.25;;;-5.66;64.10
76311;BME280;65120;59.304;18.294;2023-03-11T00:45:54;99942.63;;;-5.69;63.91
76311;BME280;65120;59.304;18.294;2023-03-11T00:48:21;99944.25;;;-5.71;63.76
76311;BME280;65120;59.304;18.294;2023-03-11T00:50:48;99938.13;;;-5.76;64.31
76311;BME280;65120;59.304;18.294;2023-03-11T00:53:17;99934.66;;;-5.78;64.43
76311;BME280;65120;59.304;18.294;2023-03-11T00:55:43;99937.09;;;-5.81;63.86
76311;BME280;65120;59.304;18.294;2023-03-11T00:58:11;99930.19;;;-5.85;64.58
76311;BME280;65120;59.304;18.294;2023-03-11T01:00:38;99927.56;;;-5.88;64.45
76311;BME280;65120;59.304;18.294;2023-03-11T01:03:05;99930.09;;;-5.88;63.84
76311;BME280;65120;59.304;18.294;2023-03-11T01:05:33;99936.75;;;-5.92;64.52
76311;BME280;65120;59.304;18.294;2023-03-11T01:08:00;99930.72;;;-5.95;64.76
76311;BME280;65120;59.304;18.294;2023-03-11T01:10:30;99928.94;;;-5.98;64.58
76311;BME280;65120;59.304;18.294;2023-03-11T01:12:57;99929.72;;;-6.00;63.99
76311;BME280;65120;59.304;18.294;2023-03-11T01:15:26;99936.41;;;-6.02;64.08
76311;BME280;65120;59.304;18.294;2023-03-11T01:17:53;99938.00;;;-6.06;64.47
76311;BME280;65120;59.304;18.294;2023-03-11T01:20:21;99920.03;;;-6.11;63.98
76311;BME280;65120;59.304;18.294;2023-03-11T01:22:48;99931.81;;;-6.13;63.77
76311;BME280;65120;59.304;18.294;2023-03-11T01:25:17;99931.78;;;-6.14;63.85
76311;BME280;65120;59.304;18.294;2023-03-11T01:27:46;99934.22;;;-6.17;64.46
76311;BME280;65120;59.304;18.294;2023-03-11T01:30:16;99933.22;;;-6.21;63.90
76311;BME280;65120;59.304;18.294;2023-03-11T01:32:43;99929.78;;;-6.23;63.70
76311;BME280;65120;59.304;18.294;2023-03-11T01:35:12;99925.38;;;-6.27;64.37
76311;BME280;65120;59.304;18.294;2023-03-11T01:37:39;99923.59;;;-6.29;63.86
76311;BME280;65120;59.304;18.294;2023-03-11T01:40:10;99929.44;;;-6.32;63.78
76311;BME280;65120;59.304;18.294;2023-03-11T01:42:40;99925.94;;;-6.36;63.76
76311;BME280;65120;59.304;18.294;2023-03-11T01:45:29;99917.34;;;-6.39;64.48
76311;BME280;65120;59.304;18.294;2023-03-11T01:47:58;99913.88;;;-6.41;63.82
76311;BME280;65120;59.304;18.294;2023-03-11T01:50:27;99911.22;;;-6.44;63.95
76311;BME280;65120;59.304;18.294;2023-03-11T01:52:56;99908.56;;;-6.47;64.64
76311;BME280;65120;59.304;18.294;2023-03-11T01:55:23;99911.03;;;-6.49;63.83
76311;BME280;65120;59.304;18.294;2023-03-11T01:57:50;99915.16;;;-6.52;64.47
76311;BME280;65120;59.304;18.294;2023-03-11T02:00:20;99911.72;;;-6.54;63.86
76311;BME280;65120;59.304;18.294;2023-03-11T02:02:50;99908.25;;;-6.57;64.59
76311;BME280;65120;59.304;18.294;2023-03-11T02:05:19;99906.38;;;-6.61;63.94
76311;BME280;65120;59.304;18.294;2023-03-11T02:07:48;99910.56;;;-6.63;64.06
76311;BME280;65120;59.304;18.294;2023-03-11T02:10:16;99901.09;;;-6.67;64.35
76311;BME280;65120;59.304;18.294;2023-03-11T02:12:44;99910.47;;;-6.66;64.44
76311;BME280;65120;59.304;18.294;2023-03-11T02:15:11;99909.53;;;-6.68;63.90
76311;BME280;65120;59.304;18.294;2023-03-11T02:17:41;99908.59;;;-6.70;64.66
76311;BME280;65120;59.304;18.294;2023-03-11T02:20:15;99904.34;;;-6.71;64.28
76311;BME280;65120;59.304;18.294;2023-03-11T02:22:45;99905.97;;;-6.73;64.24
76311;BME280;65120;59.304;18.294;2023-03-11T02:25:20;99899.16;;;-6.74;64.92
76311;BME280;65120;59.304;18.294;2023-03-11T02:27:52;99896.53;;;-6.75;64.76
76311;BME280;65120;59.304;18.294;2023-03-11T02:30:20;99888.81;;;-6.79;64.55
76311;BME280;65120;59.304;18.294;2023-03-11T02:32:48;99896.53;;;-6.75;64.21
76311;BME280;65120;59.304;18.294;2023-03-11T02:35:16;99890.59;;;-6.76;64.02
76311;BME280;65120;59.304;18.294;2023-03-11T02:37:44;99884.66;;;-6.76;65.01
76311;BME280;65120;59.304;18.294;2023-03-11T02:40:34;99883.81;;;-6.77;65.04
76311;BME280;65120;59.304;18.294;2023-03-11T02:43:06;99881.31;;;-6.75;64.73
76311;BME280;65120;59.304;18.294;2023-03-11T02:45:35;99877.72;;;-6.81;64.08
76311;BME280;65120;59.304;18.294;2023-03-11T02:48:06;99883.03;;;-6.74;64.76
76311;BME280;65120;59.304;18.294;2023-03-11T02:50:34;99891.53;;;-6.74;64.82
76311;BME280;65120;59.304;18.294;2023-03-11T02:53:03;99886.50;;;-6.72;64.28
76311;BME280;65120;59.304;18.294;2023-03-11T02:55:31;99882.28;;;-6.72;64.59
76311;BME280;65120;59.304;18.294;2023-03-11T02:57:58;99885.75;;;-6.70;64.26
76311;BME280;65120;59.304;18.294;2023-03-11T03:00:26;99879.00;;;-6.69;64.53
76311;BME280;65120;59.304;18.294;2023-03-11T03:02:53;99886.69;;;-6.68;64.96
76311;BME280;65120;59.304;18.294;2023-03-11T03:05:21;99880.78;;;-6.67;64.54
76311;BME280;65120;59.304;18.294;2023-03-11T03:07:49;99877.44;;;-6.66;64.50
76311;BME280;65120;59.304;18.294;2023-03-11T03:10:17;99876.63;;;-6.65;65.31
76311;BME280;65120;59.304;18.294;2023-03-11T03:12:45;99872.38;;;-6.66;64.68
76311;BME280;65120;59.304;18.294;2023-03-11T03:15:12;99874.13;;;-6.63;65.29
76311;BME280;65120;59.304;18.294;2023-03-11T03:17:42;99866.56;;;-6.62;64.96
76311;BME280;65120;59.304;18.294;2023-03-11T03:20:10;99867.50;;;-6.60;65.12
76311;BME280;65120;59.304;18.294;2023-03-11T03:22:38;99870.03;;;-6.60;64.81
76311;BME280;65120;59.304;18.294;2023-03-11T03:25:06;99864.22;;;-6.57;65.35
76311;BME280;65120;59.304;18.294;2023-03-11T03:27:34;99874.41;;;-6.56;64.81
76311;BME280;65120;59.304;18.294;2023-03-11T03:30:00;99860.91;;;-6.54;65.33
76311;BME280;65120;59.304;18.294;2023-03-11T03:32:28;99866.00;;;-6.54;65.20
76311;BME280;65120;59.304;18.294;2023-03-11T03:34:56;99862.63;;;-6.53;65.15
76311;BME280;65120;59.304;18.294;2023-03-11T03:37:24;99868.63;;;-6.51;65.18
76311;BME280;65120;59.304;18.294;2023-03-11T03:39:52;99862.63;;;-6.53;65.10
76311;BME280;65120;59.304;18.294;2023-03-11T03:42:19;99866.97;;;-6.51;64.77
76311;BME280;65120;59.304;18.294;2023-03-11T03:44:46;99855.13;;;-6.50;64.93
76311;BME280;65120;59.304;18.294;2023-03-11T03:47:13;99856.03;;;-6.48;65.37
76311;BME280;65120;59.304;18.294;2023-03-11T03:49:40;99850.13;;;-6.47;65.04
76311;BME280;65120;59.304;18.294;2023-03-11T03:52:08;99849.31;;;-6.46;65.04
76311;BME280;65120;59.304;18.294;2023-03-11T03:54:35;99838.38;;;-6.45;65.20
76311;BME280;65120;59.304;18.294;2023-03-11T03:57:02;99841.00;;;-6.42;65.19
76311;BME280;65120;59.304;18.294;2023-03-11T03:59:30;99837.63;;;-6.41;65.01
76311;BME280;65120;59.304;18.294;2023-03-11T04:01:56;99824.00;;;-6.43;65.20
76311;BME280;65120;59.304;18.294;2023-03-11T04:04:23;99819.81;;;-6.43;65.38
76311;BME280;65120;59.304;18.294;2023-03-11T04:06:50;99835.31;;;-6.35;65.87
76311;BME280;65120;59.304;18.294;2023-03-11T04:09:19;99831.22;;;-6.31;65.07
76311;BME280;65120;59.304;18.294;2023-03-11T04:11:46;99822.69;;;-6.32;65.40
76311;BME280;65120;59.304;18.294;2023-03-11T04:14:13;99830.59;;;-6.24;65.27
76311;BME280;65120;59.304;18.294;2023-03-11T04:16:40;99825.59;;;-6.21;65.86
76311;BME280;65120;59.304;18.294;2023-03-11T04:19:07;99822.31;;;-6.19;65.64
76311;BME280;65120;59.304;18.294;2023-03-11T04:21:34;99820.81;;;-6.12;66.27
76311;BME280;65120;59.304;18.294;2023-03-11T04:24:01;99809.91;;;-6.09;65.50
76311;BME280;65120;59.304;18.294;2023-03-11T04:26:30;99798.00;;;-6.11;66.24
76311;BME280;65120;59.304;18.294;2023-03-11T04:28:57;99811.00;;;-6.01;65.95
76311;BME280;65120;59.304;18.294;2023-03-11T04:31:23;99794.81;;;-6.05;65.78
76311;BME280;65120;59.304;18.294;2023-03-11T04:33:50;99796.78;;;-5.96;65.84
76311;BME280;65120;59.304;18.294;2023-03-11T04:36:17;99804.63;;;-5.89;65.73
76311;BME280;65120;59.304;18.294;2023-03-11T04:38:44;99801.22;;;-5.89;66.52
76311;BME280;65120;59.304;18.294;2023-03-11T04:41:11;99802.31;;;-5.81;65.92
76311;BME280;65120;59.304;18.294;2023-03-11T04:43:39;99793.97;;;-5.77;66.79
76311;BME280;65120;59.304;18.294;2023-03-11T04:46:06;99799.16;;;-5.74;66.84
76311;BME280;65120;59.304;18.294;2023-03-11T04:48:33;99793.31;;;-5.70;66.17
76311;BME280;65120;59.304;18.294;2023-03-11T04:51:00;99793.50;;;-5.63;66.44
76311;BME280;65120;59.304;18.294;2023-03-11T04:53:27;99777.34;;;-5.66;66.78
76311;BME280;65120;59.304;18.294;2023-03-11T04:55:53;99779.34;;;-5.55;66.46
76311;BME280;65120;59.304;18.294;2023-03-11T04:58:20;99776.84;;;-5.54;66.77
76311;BME280;65120;59.304;18.294;2023-03-11T05:00:48;99776.09;;;-5.51;66.96
76311;BME280;65120;59.304;18.294;2023-03-11T05:03:15;99779.72;;;-5.43;66.68
76311;BME280;65120;59.304;18.294;2023-03-11T05:05:43;99781.53;;;-5.39;66.73
76311;BME280;65120;59.304;18.294;2023-03-11T05:08:10;99777.44;;;-5.34;67.20
76311;BME280;65120;59.304;18.294;2023-03-11T05:10:38;99763.00;;;-5.35;66.61
76311;BME280;65120;59.304;18.294;2023-03-11T05:13:06;99773.44;;;-5.26;66.50
76311;BME280;65120;59.304;18.294;2023-03-11T05:15:33;99771.00;;;-5.21;66.67
76311;BME280;65120;59.304;18.294;2023-03-11T05:18:02;99769.44;;;-5.17;66.41
76311;BME280;65120;59.304;18.294;2023-03-11T05:20:29;99755.56;;;-5.27;66.81
76311;BME280;65120;59.304;18.294;2023-03-11T05:22:56;99778.97;;;-5.10;67.26
76311;BME280;65120;59.304;18.294;2023-03-11T05:25:24;99770.41;;;-5.12;66.69
76311;BME280;65120;59.304;18.294;2023-03-11T05:27:50;99776.56;;;-5.06;67.10
76311;BME280;65120;59.304;18.294;2023-03-11T05:30:17;99772.41;;;-5.02;67.31
76311;BME280;65120;59.304;18.294;2023-03-11T05:32:44;99775.94;;;-4.97;67.08
76311;BME280;65120;59.304;18.294;2023-03-11T05:35:12;99757.97;;;-5.03;67.11
76311;BME280;65120;59.304;18.294;2023-03-11T05:37:39;99752.19;;;-4.96;66.82
76311;BME280;65120;59.304;18.294;2023-03-11T05:40:08;99761.75;;;-4.89;67.26
76311;BME280;65120;59.304;18.294;2023-03-11T05:42:35;99760.13;;;-4.85;67.39
76311;BME280;65120;59.304;18.294;2023-03-11T05:45:03;99755.97;;;-4.82;66.94
76311;BME280;65120;59.304;18.294;2023-03-11T05:47:29;99763.69;;;-4.79;67.27
76311;BME280;65120;59.304;18.294;2023-03-11T05:49:57;99757.03;;;-4.75;66.88
76311;BME280;65120;59.304;18.294;2023-03-11T05:52:25;99757.09;;;-4.72;66.91
76311;BME280;65120;59.304;18.294;2023-03-11T05:54:52;99762.28;;;-4.69;67.02
76311;BME280;65120;59.304;18.294;2023-03-11T05:57:19;99758.94;;;-4.66;67.01
76311;BME280;65120;59.304;18.294;2023-03-11T05:59:46;99758.19;;;-4.62;66.80
76311;BME280;65120;59.304;18.294;2023-03-11T06:02:13;99755.72;;;-4.59;67.22
76311;BME280;65120;59.304;18.294;2023-03-11T06:04:39;99746.38;;;-4.59;67.11
76311;BME280;65120;59.304;18.294;2023-03-11T06:07:06;99730.28;;;-4.58;67.13
76311;BME280;65120;59.304;18.294;2023-03-11T06:09:35;99727.78;;;-4.56;66.90
76311;BME280;65120;59.304;18.294;2023-03-11T06:12:02;99727.06;;;-4.50;66.90
76311;BME280;65120;59.304;18.294;2023-03-11T06:14:30;99725.38;;;-4.50;67.41
76311;BME280;65120;59.304;18.294;2023-03-11T06:16:58;99727.13;;;-4.47;67.47
76311;BME280;65120;59.304;18.294;2023-03-11T06:19:25;99720.41;;;-4.45;67.52
76311;BME280;65120;59.304;18.294;2023-03-11T06:21:52;99732.38;;;-4.41;67.51
76311;BME280;65120;59.304;18.294;2023-03-11T06:24:20;99724.72;;;-4.43;67.20
76311;BME280;65120;59.304;18.294;2023-03-11T06:26:51;99699.03;;;-4.50;67.64
76311;BME280;65120;59.304;18.294;2023-03-11T06:29:18;99734.41;;;-4.28;67.62
76311;BME280;65120;59.304;18.294;2023-03-11T06:31:46;99736.25;;;-4.24;67.54
76311;BME280;65120;59.304;18.294;2023-03-11T06:34:13;99737.09;;;-4.23;67.14
76311;BME280;65120;59.304;18.294;2023-03-11T06:36:40;99744.84;;;-4.19;67.14
76311;BME280;65120;59.304;18.294;2023-03-11T06:39:06;99737.22;;;-4.17;67.59
76311;BME280;65120;59.304;18.294;2023-03-11T06:41:34;99749.34;;;-4.09;67.32
76311;BME280;65120;59.304;18.294;2023-03-11T06:44:03;99735.66;;;-4.12;67.57
76311;BME280;65120;59.304;18.294;2023-03-11T06:46:29;99745.28;;;-4.00;67.18
76311;BME280;65120;59.304;18.294;2023-03-11T06:48:56;99752.16;;;-3.98;67.69
76311;BME280;65120;59.304;18.294;2023-03-11T06:51:23;99745.31;;;-3.99;67.42
76311;BME280;65120;59.304;18.294;2023-03-11T06:53:51;99755.75;;;-3.90;67.41
76311;BME280;65120;59.304;18.294;2023-03-11T06:56:19;99752.44;;;-3.86;67.56
76311;BME280;65120;59.304;18.294;2023-03-11T06:58:46;99755.06;;;-3.82;67.27
76311;BME280;65120;59.304;18.294;2023-03-11T07:01:16;99756.84;;;-3.78;67.40
76311;BME280;65120;59.304;18.294;2023-03-11T07:03:44;99750.13;;;-3.75;67.53
76311;BME280;65120;59.304;18.294;2023-03-11T07:06:15;99732.13;;;-3.81;67.24
76311;BME280;65120;59.304;18.294;2023-03-11T07:08:42;99750.31;;;-3.66;67.33
76311;BME280;65120;59.304;18.294;2023-03-11T07:11:12;99749.53;;;-3.63;67.44
76311;BME280;65120;59.304;18.294;2023-03-11T07:13:40;99747.00;;;-3.62;67.66
76311;BME280;65120;59.304;18.294;2023-03-11T07:16:08;99739.38;;;-3.60;67.32
76311;BME280;65120;59.304;18.294;2023-03-11T07:18:38;99750.63;;;-3.52;67.38
76311;BME280;65120;59.304;18.294;2023-03-11T07:21:06;99745.66;;;-3.46;67.60
76311;BME280;65120;59.304;18.294;2023-03-11T07:23:33;99755.13;;;-3.40;67.57
76311;BME280;65120;59.304;18.294;2023-03-11T07:26:01;99745.84;;;-3.36;67.34
76311;BME280;65120;59.304;18.294;2023-03-11T07:28:28;99731.31;;;-3.41;67.66
76311;BME280;65120;59.304;18.294;2023-03-11T07:30:55;99728.88;;;-3.34;67.53
76311;BME280;65120;59.304;18.294;2023-03-11T07:33:22;99747.88;;;-3.20;67.53
76311;BME280;65120;59.304;18.294;2023-03-11T07:35:51;99740.34;;;-3.15;67.55
76311;BME280;65120;59.304;18.294;2023-03-11T07:38:18;99721.50;;;-3.21;67.71
76311;BME280;65120;59.304;18.294;2023-03-11T07:40:45;99732.81;;;-3.08;67.44
76311;BME280;65120;59.304;18.294;2023-03-11T07:43:12;99730.34;;;-3.02;67.46
76311;BME280;65120;59.304;18.294;2023-03-11T07:45:39;99733.06;;;-2.94;67.38
76311;BME280;65120;59.304;18.294;2023-03-11T07:48:06;99733.16;;;-2.89;67.46
76311;BME280;65120;59.304;18.294;2023-03-11T07:50:32;99723.84;;;-2.86;67.75
76311;BME280;65120;59.304;18.294;2023-03-11T07:53:01;99729.13;;;-2.78;67.34
76311;BME280;65120;59.304;18.294;2023-03-11T07:55:28;99721.56;;;-2.72;67.38
76311;BME280;65120;59.304;18.294;2023-03-11T07:57:54;99725.94;;;-2.66;67.54
76311;BME280;65120;59.304;18.294;2023-03-11T08:00:21;99721.72;;;-2.63;67.25
76311;BME280;65120;59.304;18.294;2023-03-11T08:02:48;99720.16;;;-2.55;66.92
76311;BME280;65120;59.304;18.294;2023-03-11T08:05:15;99705.56;;;-2.62;67.30
76311;BME280;65120;59.304;18.294;2023-03-11T08:07:45;99722.00;;;-2.47;67.50
76311;BME280;65120;59.304;18.294;2023-03-11T08:10:13;99721.25;;;-2.40;67.14
76311;BME280;65120;59.304;18.294;2023-03-11T08:12:40;99711.88;;;-2.41;67.13
76311;BME280;65120;59.304;18.294;2023-03-11T08:15:08;99719.75;;;-2.29;67.30
76311;BME280;65120;59.304;18.294;2023-03-11T08:17:35;99720.69;;;-2.24;67.35
76311;BME280;65120;59.304;18.294;2023-03-11T08:20:02;99718.19;;;-2.19;66.88
76311;BME280;65120;59.304;18.294;2023-03-11T08:22:33;99701.22;;;-2.14;66.88
76311;BME280;65120;59.304;18.294;2023-03-11T08:25:00;99709.84;;;-2.08;66.95
76311;BME280;65120;59.304;18.294;2023-03-11T08:27:28;99697.91;;;-2.07;66.95
76311;BME280;65120;59.304;18.294;2023-03-11T08:29:55;99700.53;;;-2.03;66.88
76311;BME280;65120;59.304;18.294;2023-03-11T08:32:22;99712.63;;;-1.92;67.12
76311;BME280;65120;59.304;18.294;2023-03-11T08:34:48;99695.66;;;-1.87;67.20
76311;BME280;65120;59.304;18.294;2023-03-11T08:37:15;99708.53;;;-1.81;66.67
76311;BME280;65120;59.304;18.294;2023-03-11T08:39:42;99694.88;;;-1.80;67.12
76311;BME280;65120;59.304;18.294;2023-03-11T08:42:09;99690.69;;;-1.75;66.84
76311;BME280;65120;59.304;18.294;2023-03-11T08:44:38;99697.63;;;-1.68;66.87
76311;BME280;65120;59.304;18.294;2023-03-11T08:47:05;99701.16;;;-1.58;66.59
76311;BME280;65120;59.304;18.294;2023-03-11T08:49:32;99701.25;;;-1.52;66.78
76311;BME280;65120;59.304;18.294;2023-03-11T08:52:00;99709.00;;;-1.46;66.35
76311;BME280;65120;59.304;18.294;2023-03-11T08:54:27;99697.13;;;-1.42;66.82
76311;BME280;65120;59.304;18.294;2023-03-11T08:56:54;99670.53;;;-1.50;66.76
76311;BME280;65120;59.304;18.294;2023-03-11T08:59:21;99700.72;;;-1.26;66.91
76311;BME280;65120;59.304;18.294;2023-03-11T09:01:49;99687.91;;;-1.28;66.76
76311;BME280;65120;59.304;18.294;2023-03-11T09:04:16;99694.88;;;-1.15;66.62
76311;BME280;65120;59.304;18.294;2023-03-11T09:06:43;99681.25;;;-1.10;66.56
76311;BME280;65120;59.304;18.294;2023-03-11T09:09:11;99672.66;;;-1.16;66.24
76311;BME280;65120;59.304;18.294;2023-03-11T09:11:38;99685.63;;;-1.00;66.59
76311;BME280;65120;59.304;18.294;2023-03-11T09:14:06;99689.16;;;-0.89;66.39
76311;BME280;65120;59.304;18.294;2023-03-11T09:16:33;99685.84;;;-0.82;66.47
76311;BME280;65120;59.304;18.294;2023-03-11T09:19:01;99684.19;;;-0.75;66.44
76311;BME280;65120;59.304;18.294;2023-03-11T09:21:31;99680.84;;;-0.68;66.76
76311;BME280;65120;59.304;18.294;2023-03-11T09:23:58;99683.44;;;-0.60;66.16
76311;BME280;65120;59.304;18.294;2023-03-11T09:26:26;99667.22;;;-0.61;66.16
76311;BME280;65120;59.304;18.294;2023-03-11T09:28:53;99659.53;;;-0.59;66.09
76311;BME280;65120;59.304;18.294;2023-03-11T09:31:19;99665.66;;;-0.43;65.71
76311;BME280;65120;59.304;18.294;2023-03-11T09:33:46;99669.13;;;-0.38;66.06
76311;BME280;65120;59.304;18.294;2023-03-11T09:36:17;99669.19;;;-0.28;66.11
76311;BME280;65120;59.304;18.294;2023-03-11T09:38:44;99671.78;;;-0.25;65.99
76311;BME280;65120;59.304;18.294;2023-03-11T09:41:20;99682.16;;;-0.14;66.27
76311;BME280;65120;59.304;18.294;2023-03-11T09:44:00;99667.63;;;-0.10;65.81
76311;BME280;65120;59.304;18.294;2023-03-11T09:46:50;99670.22;;;-0.04;65.70
76311;BME280;65120;59.304;18.294;2023-03-11T09:49:29;99657.38;;;-0.07;65.48
76311;BME280;65120;59.304;18.294;2023-03-11T09:52:08;99670.25;;;0.02;65.51
76311;BME280;65120;59.304;18.294;2023-03-11T09:54:38;99662.56;;;0.01;65.01
76311;BME280;65120;59.304;18.294;2023-03-11T09:57:10;99675.44;;;0.10;65.05
76311;BME280;65120;59.304;18.294;2023-03-11T09:59:39;99672.91;;;0.16;64.71
76311;BME280;65120;59.304;18.294;2023-03-11T10:02:11;99677.22;;;0.21;65.19
76311;BME280;65120;59.304;18.294;2023-03-11T10:04:43;99671.22;;;0.22;64.85
76311;BME280;65120;59.304;18.294;2023-03-11T10:07:15;99679.00;;;0.32;65.06
76311;BME280;65120;59.304;18.294;2023-03-11T10:09:49;99657.56;;;0.31;65.06
76311;BME280;65120;59.304;18.294;2023-03-11T10:12:24;99661.88;;;0.37;64.58
76311;BME280;65120;59.304;18.294;2023-03-11T10:15:06;99650.75;;;0.36;65.09
76311;BME280;65120;59.304;18.294;2023-03-11T10:17:45;99656.81;;;0.49;64.82
76311;BME280;65120;59.304;18.294;2023-03-11T10:20:19;99661.97;;;0.52;65.45
76311;BME280;65120;59.304;18.294;2023-03-11T10:22:56;99650.84;;;0.53;64.49
76311;BME280;65120;59.304;18.294;2023-03-11T10:25:29;99662.03;;;0.66;65.07
76311;BME280;65120;59.304;18.294;2023-03-11T10:28:01;99654.31;;;0.66;64.65
76311;BME280;65120;59.304;18.294;2023-03-11T10:30:34;99652.59;;;0.71;64.73
76311;BME280;65120;59.304;18.294;2023-03-11T10:33:07;99650.06;;;0.79;64.33
76311;BME280;65120;59.304;18.294;2023-03-11T10:35:40;99634.59;;;0.71;64.06
76311;BME280;65120;59.304;18.294;2023-03-11T10:38:14;99659.53;;;0.83;64.21
76311;BME280;65120;59.304;18.294;2023-03-11T10:40:45;99641.50;;;0.81;64.23
76311;BME280;65120;59.304;18.294;2023-03-11T10:43:15;99649.25;;;0.89;64.01
76311;BME280;65120;59.304;18.294;2023-03-11T10:45:44;99631.25;;;0.83;63.95
76311;BME280;65120;59.304;18.294;2023-03-11T10:48:15;99635.53;;;0.85;64.05
76311;BME280;65120;59.304;18.294;2023-03-11T10:50:48;99645.81;;;0.96;63.71
76311;BME280;65120;59.304;18.294;2023-03-11T10:53:19;99644.13;;;1.03;64.00
76311;BME280;65120;59.304;18.294;2023-03-11T10:55:47;99624.41;;;0.94;64.41
76311;BME280;65120;59.304;18.294;2023-03-11T10:58:16;99641.56;;;1.06;63.95
76311;BME280;65120;59.304;18.294;2023-03-11T11:00:44;99649.28;;;1.12;64.10
76311;BME280;65120;59.304;18.294;2023-03-11T11:03:20;99642.44;;;1.12;63.72
76311;BME280;65120;59.304;18.294;2023-03-11T11:05:58;99629.56;;;1.06;64.02
76311;BME280;65120;59.304;18.294;2023-03-11T11:08:26;99627.88;;;1.08;63.23
76311;BME280;65120;59.304;18.294;2023-03-11T11:10:55;99615.00;;;1.08;63.28
76311;BME280;65120;59.304;18.294;2023-03-11T11:13:23;99639.88;;;1.25;63.99
76311;BME280;65120;59.304;18.294;2023-03-11T11:15:59;99637.28;;;1.25;62.87
76311;BME280;65120;59.304;18.294;2023-03-11T11:18:30;99631.31;;;1.23;63.11
76311;BME280;65120;59.304;18.294;2023-03-11T11:21:00;99633.88;;;1.29;62.78
76311;BME280;65120;59.304;18.294;2023-03-11T11:23:36;99635.59;;;1.28;63.36
76311;BME280;65120;59.304;18.294;2023-03-11T11:26:06;99611.56;;;1.22;63.29
76311;BME280;65120;59.304;18.294;2023-03-11T11:28:34;99634.72;;;1.32;63.71
76311;BME280;65120;59.304;18.294;2023-03-11T11:31:03;99627.88;;;1.30;63.60
76311;BME280;65120;59.304;18.294;2023-03-11T11:33:32;99622.72;;;1.30;62.90
76311;BME280;65120;59.304;18.294;2023-03-11T11:36:01;99643.31;;;1.39;62.87
76311;BME280;65120;59.304;18.294;2023-03-11T11:38:30;99617.56;;;1.36;62.92
76311;BME280;65120;59.304;18.294;2023-03-11T11:41:02;99627.88;;;1.36;62.70
76311;BME280;65120;59.304;18.294;2023-03-11T11:43:38;99630.44;;;1.42;62.68
76311;BME280;65120;59.304;18.294;2023-03-11T11:46:15;99627.03;;;1.43;63.25
76311;BME280;65120;59.304;18.294;2023-03-11T11:48:49;99611.59;;;1.37;63.08
76311;BME280;65120;59.304;18.294;2023-03-11T11:51:21;99611.59;;;1.43;62.83
76311;BME280;65120;59.304;18.294;2023-03-11T11:53:54;99587.56;;;1.24;62.99
76311;BME280;65120;59.304;18.294;2023-03-11T11:56:25;99611.56;;;1.48;62.38
76311;BME280;65120;59.304;18.294;2023-03-11T11:58:52;99602.13;;;1.42;62.05
76311;BME280;65120;59.304;18.294;2023-03-11T12:01:28;99618.44;;;1.50;62.53
76311;BME280;65120;59.304;18.294;2023-03-11T12:04:24;99586.72;;;1.33;62.49
76311;BME280;65120;59.304;18.294;2023-03-11T12:06:55;99616.75;;;1.51;63.09
76311;BME280;65120;59.304;18.294;2023-03-11T12:09:29;99616.72;;;1.52;62.46
76311;BME280;65120;59.304;18.294;2023-03-11T12:12:11;99606.41;;;1.48;62.72
76311;BME280;65120;59.304;18.294;2023-03-11T12:14:43;99606.44;;;1.54;62.14
76311;BME280;65120;59.304;18.294;2023-03-11T12:17:15;99588.44;;;1.43;62.24
76311;BME280;65120;59.304;18.294;2023-03-11T12:19:47;99610.72;;;1.60;62.30
76311;BME280;65120;59.304;18.294;2023-03-11T12:22:49;99609.88;;;1.61;62.22
76311;BME280;65120;59.304;18.294;2023-03-11T12:25:26;99608.16;;;1.60;61.87
76311;BME280;65120;59.304;18.294;2023-03-11T12:28:01;99605.59;;;1.60;62.22
76311;BME280;65120;59.304;18.294;2023-03-11T12:30:37;99602.13;;;1.59;62.68
76311;BME280;65120;59.304;18.294;2023-03-11T12:33:13;99578.13;;;1.46;61.88
76311;BME280;65120;59.304;18.294;2023-03-11T12:35:48;99570.41;;;1.42;62.17
76311;BME280;65120;59.304;18.294;2023-03-11T12:38:21;99590.13;;;1.56;62.19
76311;BME280;65120;59.304;18.294;2023-03-11T12:41:06;99584.13;;;1.53;62.04
76311;BME280;65120;59.304;18.294;2023-03-11T12:44:21;99580.69;;;1.52;61.94
76311;BME280;65120;59.304;18.294;2023-03-11T12:47:22;99584.97;;;1.56;62.11
76311;BME280;65120;59.304;18.294;2023-03-11T12:49:50;99593.56;;;1.58;62.17
76311;BME280;65120;59.304;18.294;2023-03-11T12:52:29;99572.13;;;1.47;61.79
76311;BME280;65120;59.304;18.294;2023-03-11T12:55:30;99590.97;;;1.58;62.43
76311;BME280;65120;59.304;18.294;2023-03-11T13:01:19;99570.41;;;1.48;61.84
76311;BME280;65120;59.304;18.294;2023-03-11T13:03:52;99570.41;;;1.46;61.95
76311;BME280;65120;59.304;18.294;2023-03-11T13:06:45;99584.13;;;1.57;62.14
76311;BME280;65120;59.304;18.294;2023-03-11T13:09:18;99580.72;;;1.57;61.48